Time;durP1;ratioP1;P1;durP2;ratioP2;P2;SDS_P1;SDS_P2;PMS_P1;PMS_P2;Temp;Humidity;BMP_temperature;BMP_pressure;BME280_temperature;BME280_humidity;BME280_pressure;Samples;Min_cycle;Max_cycle;Signal;HPM_P1;HPM_P2
2021/03/18 00:01:56;;;;;;;26.23;8.15;;;;;;;2.22;75.96;98609.38;1806005;79;20971;-71
2021/03/18 00:04:23;;;;;;;33.23;8.48;;;;;;;2.22;76.08;98610.73;1805873;79;21188;-70
2021/03/18 00:06:51;;;;;;;17.10;7.80;;;;;;;2.22;76.00;98610.73;1806066;79;20919;-70
2021/03/18 00:09:19;;;;;;;22.17;8.20;;;;;;;2.22;75.83;98612.08;1825869;78;22326;-70
2021/03/18 00:11:49;;;;;;;23.05;8.23;;;;;;;2.22;75.97;98611.53;1861914;77;21006;-70
2021/03/18 00:14:21;;;;;;;18.77;7.47;;;;;;;2.23;76.03;98609.63;1828104;78;20982;-70
2021/03/18 00:16:50;;;;;;;17.10;8.00;;;;;;;2.24;76.55;98613.41;1861803;77;20922;-70
2021/03/18 00:19:19;;;;;;;22.75;8.23;;;;;;;2.23;76.32;98608.28;1828300;78;21120;-70
2021/03/18 00:21:47;;;;;;;26.30;8.15;;;;;;;2.20;76.17;98612.36;1861860;77;21413;-71
2021/03/18 00:24:16;;;;;;;22.00;7.72;;;;;;;2.19;76.32;98616.71;1827910;78;20974;-71
2021/03/18 00:26:43;;;;;;;22.15;7.92;;;;;;;2.21;76.49;98617.23;1782655;78;21612;-70
2021/03/18 00:29:10;;;;;;;24.90;7.55;;;;;;;2.21;76.43;98613.98;1789238;80;21014;-71
2021/03/18 00:31:40;;;;;;;21.17;7.12;;;;;;;2.24;76.40;98612.61;1785730;80;21092;-72
2021/03/18 00:34:07;;;;;;;28.02;8.53;;;;;;;2.24;76.34;98606.64;1789360;80;21487;-72
2021/03/18 00:36:36;;;;;;;27.48;8.08;;;;;;;2.23;76.37;98602.86;1789280;80;21073;-71
2021/03/18 00:39:07;;;;;;;26.57;8.68;;;;;;;2.23;76.45;98607.73;1789361;80;21169;-70
2021/03/18 00:41:36;;;;;;;21.75;7.65;;;;;;;2.23;76.32;98602.86;1789478;80;21017;-70
2021/03/18 00:44:04;;;;;;;18.82;7.42;;;;;;;2.21;76.22;98596.92;1789375;80;21636;-70
2021/03/18 00:46:32;;;;;;;25.68;7.12;;;;;;;2.18;76.24;98600.20;1789285;80;21203;-70
2021/03/18 00:49:00;;;;;;;19.15;7.37;;;;;;;2.16;76.56;98599.67;1789386;80;20990;-71
2021/03/18 00:51:28;;;;;;;23.42;8.00;;;;;;;2.15;76.59;98588.58;1760501;80;21191;-70
2021/03/18 00:53:55;;;;;;;15.85;7.40;;;;;;;2.15;76.50;98594.00;1789431;79;21579;-71
2021/03/18 00:56:23;;;;;;;21.17;8.28;;;;;;;2.12;76.50;98594.02;1789296;80;21204;-71
2021/03/18 00:58:56;;;;;;;20.05;8.33;;;;;;;2.11;76.71;98599.72;1789215;80;21381;-71
2021/03/18 01:01:25;;;;;;;19.57;7.40;;;;;;;2.12;76.68;98599.98;1789259;80;21398;-71
2021/03/18 01:03:53;;;;;;;22.80;7.90;;;;;;;2.14;76.46;98597.80;1789455;79;21029;-71
2021/03/18 01:06:23;;;;;;;24.82;7.50;;;;;;;2.11;76.44;98601.88;1789236;80;20938;-70
2021/03/18 01:08:52;;;;;;;22.52;6.50;;;;;;;2.12;76.51;98602.69;1789339;80;21053;-69
2021/03/18 01:11:23;;;;;;;21.80;6.87;;;;;;;2.15;76.77;98598.87;1789442;79;21621;-70
2021/03/18 01:13:55;;;;;;;21.87;6.37;;;;;;;2.16;76.77;98602.38;1789420;80;21072;-70
2021/03/18 01:16:26;;;;;;;18.02;5.87;;;;;;;2.17;76.86;98598.58;1789368;80;21482;-70
2021/03/18 01:19:00;;;;;;;25.23;8.28;;;;;;;2.18;76.72;98589.37;1789497;80;21639;-69
2021/03/18 01:21:38;;;;;;;27.02;8.38;;;;;;;2.16;76.91;98594.26;1789281;80;21135;-69
2021/03/18 01:24:06;;;;;;;20.65;6.47;;;;;;;2.13;77.03;98596.18;1789372;79;21355;-70
2021/03/18 01:26:34;;;;;;;24.07;6.55;;;;;;;2.11;77.01;98589.70;1789319;80;21635;-69
2021/03/18 01:29:01;;;;;;;14.25;6.17;;;;;;;2.09;76.96;98589.17;1789291;80;21069;-69
2021/03/18 01:31:29;;;;;;;14.03;6.55;;;;;;;2.10;77.06;98599.45;1789357;79;21167;-68
2021/03/18 01:33:56;;;;;;;15.72;5.85;;;;;;;2.10;77.19;98601.61;1789384;80;21117;-69
2021/03/18 01:36:24;;;;;;;21.68;6.92;;;;;;;2.09;77.07;98591.06;1789167;80;21420;-69
2021/03/18 01:38:51;;;;;;;14.25;6.03;;;;;;;2.07;77.11;98600.02;1789113;79;21140;-69
2021/03/18 01:41:20;;;;;;;26.73;6.47;;;;;;;2.08;77.14;98597.58;1788989;80;21200;-69
2021/03/18 01:43:48;;;;;;;24.82;6.72;;;;;;;2.09;77.24;98595.12;1788993;80;21064;-69
2021/03/18 01:46:15;;;;;;;15.45;6.50;;;;;;;2.09;77.35;98594.58;1789007;80;21116;-68
2021/03/18 01:48:43;;;;;;;18.87;6.17;;;;;;;2.08;77.34;98592.97;1789067;80;21886;-68
2021/03/18 01:51:12;;;;;;;12.28;6.05;;;;;;;2.09;77.39;98600.00;1788737;80;21137;-69
2021/03/18 01:53:41;;;;;;;17.02;6.40;;;;;;;2.10;77.50;98600.27;1789216;80;21124;-69
2021/03/18 01:56:08;;;;;;;17.42;6.47;;;;;;;2.09;77.66;98596.48;1789181;80;21576;-71
2021/03/18 01:58:36;;;;;;;22.05;6.97;;;;;;;2.08;77.63;98601.64;1789324;80;21580;-69
2021/03/18 02:01:07;;;;;;;27.93;7.03;;;;;;;2.04;77.52;98597.33;1789195;80;21493;-69
2021/03/18 02:03:34;;;;;;;21.17;7.17;;;;;;;2.02;77.67;98598.70;1789157;80;21564;-69
2021/03/18 02:06:03;;;;;;;20.57;7.55;;;;;;;2.00;77.93;98603.05;1789302;80;21216;-70
2021/03/18 02:08:31;;;;;;;23.32;5.85;;;;;;;2.01;78.05;98602.50;1789062;79;21302;-69
2021/03/18 02:10:59;;;;;;;17.60;6.75;;;;;;;2.00;77.99;98601.69;1789173;79;21128;-69
2021/03/18 02:13:26;;;;;;;20.37;6.87;;;;;;;1.99;78.04;98600.89;1789350;80;21793;-69
2021/03/18 02:15:58;;;;;;;20.68;7.08;;;;;;;2.00;78.21;98597.63;1789075;80;21207;-70
2021/03/18 02:18:47;;;;;;;24.50;8.43;;;;;;;2.01;78.42;98597.89;1788855;80;21077;-70
2021/03/18 02:21:38;;;;;;;19.05;7.72;;;;;;;1.99;78.48;98603.59;1789118;80;21168;-69
2021/03/18 02:24:35;;;;;;;18.35;7.00;;;;;;;1.98;78.58;98599.27;1789221;80;21147;-69
2021/03/18 02:27:31;;;;;;;15.68;6.85;;;;;;;1.97;78.73;98606.31;1789299;80;21580;-69
2021/03/18 02:30:28;;;;;;;15.55;6.97;;;;;;;1.94;79.07;98605.53;1789123;80;21215;-69
2021/03/18 02:33:37;;;;;;;15.93;6.50;;;;;;;1.91;79.36;98605.55;1788797;80;21156;-69
2021/03/18 02:36:14;;;;;;;17.17;6.30;;;;;;;1.92;79.55;98611.22;1789090;80;21140;-68
2021/03/18 02:39:01;;;;;;;17.60;7.20;;;;;;;1.89;80.06;98614.49;1789132;80;21121;-69
2021/03/18 02:41:38;;;;;;;16.07;6.40;;;;;;;1.87;80.39;98613.97;1789311;80;21611;-69
2021/03/18 02:44:28;;;;;;;14.25;7.12;;;;;;;1.87;80.46;98620.73;1789169;80;21636;-71
2021/03/18 02:47:06;;;;;;;18.42;6.42;;;;;;;1.88;80.55;98616.94;1789161;79;21183;-68
2021/03/18 02:49:43;;;;;;;25.02;6.35;;;;;;;1.89;80.75;98621.26;1789002;80;21156;-70
2021/03/18 02:52:14;;;;;;;17.62;7.00;;;;;;;1.91;81.04;98625.03;1789091;80;21192;-69
2021/03/18 02:54:42;;;;;;;20.40;7.75;;;;;;;1.91;81.03;98616.92;1789301;80;21201;-69
2021/03/18 02:57:12;;;;;;;21.25;7.78;;;;;;;1.90;81.11;98622.88;1789030;80;21001;-69
2021/03/18 02:59:41;;;;;;;17.82;8.30;;;;;;;1.90;81.20;98628.83;1760858;80;21591;-69
2021/03/18 03:02:18;;;;;;;22.77;7.70;;;;;;;1.89;81.59;98625.31;1789037;80;21171;-71
2021/03/18 03:04:46;;;;;;;17.98;7.12;;;;;;;1.88;81.77;98627.77;1788696;80;21183;-70
2021/03/18 03:07:14;;;;;;;22.55;7.55;;;;;;;1.84;82.11;98624.00;1789076;79;21365;-70
2021/03/18 03:09:43;;;;;;;23.47;7.20;;;;;;;1.78;82.39;98629.18;1788960;80;21477;-70
2021/03/18 03:12:11;;;;;;;26.35;8.00;;;;;;;1.76;82.85;98632.71;1789199;80;21379;-70
2021/03/18 03:14:40;;;;;;;20.60;8.08;;;;;;;1.76;83.15;98636.77;1789588;80;21608;-70
2021/03/18 03:17:07;;;;;;;18.17;7.42;;;;;;;1.74;83.50;98638.95;1789397;80;21144;-70
2021/03/18 03:19:39;;;;;;;24.65;7.87;;;;;;;1.70;83.66;98643.33;1789262;80;21205;-70
2021/03/18 03:22:07;;;;;;;22.17;8.03;;;;;;;1.67;84.03;98637.13;1789533;80;21124;-70
2021/03/18 03:24:35;;;;;;;18.10;6.70;;;;;;;1.68;84.60;98636.03;1789409;80;21155;-71
2021/03/18 03:27:05;;;;;;;35.15;7.37;;;;;;;1.69;84.66;98637.66;1789314;79;21490;-70
2021/03/18 03:29:34;;;;;;;21.90;7.12;;;;;;;1.68;84.76;98641.45;1789555;80;21162;-70
2021/03/18 03:32:07;;;;;;;22.48;7.80;;;;;;;1.67;84.88;98638.48;1789432;80;21252;-70
2021/03/18 03:34:34;;;;;;;22.02;8.05;;;;;;;1.68;85.11;98643.34;1789273;80;21138;-69
2021/03/18 03:37:02;;;;;;;19.62;7.55;;;;;;;1.68;85.25;98639.28;1789423;80;21062;-69
2021/03/18 03:39:29;;;;;;;24.87;8.10;;;;;;;1.67;85.33;98642.53;1789410;80;21626;-70
2021/03/18 03:41:57;;;;;;;25.08;8.93;;;;;;;1.67;85.46;98645.24;1789384;80;21056;-68
2021/03/18 03:44:24;;;;;;;18.90;7.97;;;;;;;1.68;85.65;98653.63;1789320;80;21222;-68
2021/03/18 03:46:53;;;;;;;23.10;8.18;;;;;;;1.68;85.88;98649.56;1789332;80;21617;-69
2021/03/18 03:49:21;;;;;;;23.30;8.83;;;;;;;1.68;85.91;98646.86;1789296;80;21072;-68
2021/03/18 03:52:12;;;;;;;22.95;8.03;;;;;;;1.68;86.03;98650.11;1789463;80;21067;-68
2021/03/18 03:54:43;;;;;;;19.00;7.70;;;;;;;1.67;86.06;98655.25;1789292;80;21119;-70
2021/03/18 03:57:52;;;;;;;20.35;7.90;;;;;;;1.67;86.30;98652.55;1760470;80;21728;-69
2021/03/18 04:00:20;;;;;;;26.23;8.60;;;;;;;1.65;86.50;98654.18;1789309;80;21508;-70
2021/03/18 04:02:51;;;;;;;20.48;8.43;;;;;;;1.61;86.54;98655.28;1788544;80;21043;-70
2021/03/18 04:05:20;;;;;;;23.75;8.88;;;;;;;1.60;86.57;98661.78;1789420;80;21107;-70
2021/03/18 04:07:47;;;;;;;25.02;9.45;;;;;;;1.57;86.85;98660.17;1789468;80;21115;-70
2021/03/18 04:10:15;;;;;;;25.92;10.23;;;;;;;1.55;87.01;98665.86;1790981;79;21195;-70
2021/03/18 04:12:45;;;;;;;25.92;10.25;;;;;;;1.54;87.24;98662.08;1792427;80;21642;-70
2021/03/18 04:15:15;;;;;;;27.60;8.78;;;;;;;1.54;87.27;98664.78;1766332;80;21143;-70
2021/03/18 04:17:50;;;;;;;24.20;9.20;;;;;;;1.56;87.59;98663.97;1792435;80;21082;-71
2021/03/18 04:20:20;;;;;;;23.02;8.30;;;;;;;1.55;87.61;98661.80;1792536;79;21117;-70
2021/03/18 04:22:52;;;;;;;23.98;8.63;;;;;;;1.55;87.82;98665.86;1792557;80;22287;-69
2021/03/18 04:25:20;;;;;;;17.98;7.90;;;;;;;1.57;88.18;98659.63;1792345;80;21053;-69
2021/03/18 04:27:47;;;;;;;26.48;8.85;;;;;;;1.58;88.24;98661.25;1792498;80;21069;-68
2021/03/18 04:30:15;;;;;;;25.68;10.40;;;;;;;1.56;88.07;98662.07;1792404;80;21117;-70
2021/03/18 04:32:44;;;;;;;23.05;8.48;;;;;;;1.53;88.12;98671.28;1792954;78;21497;-75
2021/03/18 04:35:13;;;;;;;30.43;9.93;;;;;;;1.53;88.54;98665.33;1792240;79;21203;-73
2021/03/18 04:37:40;;;;;;;24.35;8.93;;;;;;;1.54;88.47;98668.30;1792416;80;21050;-72
2021/03/18 04:40:13;;;;;;;26.73;8.85;;;;;;;1.54;88.58;98671.55;1765803;80;21105;-77
2021/03/18 04:42:41;;;;;;;18.45;8.45;;;;;;;1.53;88.61;98676.15;1765759;80;21134;-78
2021/03/18 04:45:10;;;;;;;24.50;9.70;;;;;;;1.52;88.63;98675.08;1792447;80;21069;-81
2021/03/18 04:47:41;;;;;;;18.00;8.53;;;;;;;1.50;88.76;98679.95;1792610;80;22545;-80
2021/03/18 04:50:11;;;;;;;23.50;10.13;;;;;;;1.50;88.81;98680.76;1792330;80;20997;-77
2021/03/18 04:52:40;;;;;;;33.88;10.68;;;;;;;1.53;89.03;98682.10;1792258;80;21250;-82
2021/03/18 04:55:09;;;;;;;20.05;9.73;;;;;;;1.53;89.04;98686.16;1792343;80;21132;-79
2021/03/18 04:57:41;;;;;;;23.18;9.55;;;;;;;1.53;89.02;98688.33;1791987;80;21140;-78
2021/03/18 05:00:10;;;;;;;22.82;9.35;;;;;;;1.54;89.00;98691.84;1792160;80;21375;-77
2021/03/18 05:02:39;;;;;;;24.43;9.85;;;;;;;1.57;89.07;98693.44;1792484;80;21128;-79
2021/03/18 05:05:12;;;;;;;24.12;9.23;;;;;;;1.58;88.97;98696.95;1765517;80;21187;-77
2021/03/18 05:07:41;;;;;;;22.37;9.33;;;;;;;1.58;89.11;98693.70;1792607;80;21156;-79
2021/03/18 05:10:10;;;;;;;23.07;9.28;;;;;;;1.60;89.13;98697.49;1769877;80;21136;-72
2021/03/18 05:12:38;;;;;;;22.00;9.28;;;;;;;1.64;89.53;98701.27;1740194;82;21260;-81
2021/03/18 05:15:08;;;;;;;17.70;8.58;;;;;;;1.72;89.35;98703.38;1740197;82;21111;-79
2021/03/18 05:17:36;;;;;;;21.27;9.60;;;;;;;1.77;89.34;98704.69;1746565;80;21199;-85
2021/03/18 05:20:07;;;;;;;25.27;9.68;;;;;;;1.81;89.25;98703.58;1769767;80;21148;-84
2021/03/18 05:22:34;;;;;;;21.57;8.83;;;;;;;1.84;88.96;98709.79;1762503;80;21052;-83
2021/03/18 05:25:03;;;;;;;26.87;10.03;;;;;;;1.85;88.70;98710.87;1766599;80;22598;-85
2021/03/18 05:27:30;;;;;;;20.72;10.28;;;;;;;1.87;88.44;98711.94;1764537;81;20934;-84
2021/03/18 05:29:58;;;;;;;19.65;9.18;;;;;;;1.85;88.20;98713.58;1756350;81;21555;-82
2021/03/18 05:32:27;;;;;;;25.23;9.55;;;;;;;1.86;88.21;98709.78;1764695;81;21088;-85
2021/03/18 05:34:55;;;;;;;18.40;9.55;;;;;;;1.85;87.97;98716.28;1756375;81;21160;-86
2021/03/18 05:37:22;;;;;;;25.40;9.80;;;;;;;1.84;88.04;98724.13;1764713;81;21210;-83
2021/03/18 05:39:49;;;;;;;23.02;10.13;;;;;;;1.86;88.19;98731.43;1756334;81;21552;-83
2021/03/18 05:42:17;;;;;;;21.33;10.15;;;;;;;1.92;88.13;98718.68;1764696;81;20998;-81
2021/03/18 05:44:45;;;;;;;26.15;11.70;;;;;;;1.94;88.09;98721.92;1756205;81;21144;-83
2021/03/18 05:47:12;;;;;;;29.20;11.08;;;;;;;2.00;88.16;98726.22;1756305;81;21076;-78
2021/03/18 05:49:43;;;;;;;24.32;10.30;;;;;;;2.06;88.00;98727.00;1779477;79;21132;-86
2021/03/18 05:52:12;;;;;;;28.30;9.85;;;;;;;2.14;87.78;98733.98;1777556;80;20934;-83
2021/03/18 05:54:45;;;;;;;22.65;10.03;;;;;;;2.20;87.33;98738.83;1768503;80;20947;-83
2021/03/18 05:57:13;;;;;;;18.95;9.60;;;;;;;2.22;87.00;98740.71;1758459;80;21619;-78
2021/03/18 05:59:44;;;;;;;24.20;9.58;;;;;;;2.25;87.05;98734.73;1786380;80;21113;-78
2021/03/18 06:02:12;;;;;;;21.70;11.03;;;;;;;2.30;87.19;98738.77;1786932;79;21381;-81
2021/03/18 06:04:40;;;;;;;22.98;10.45;;;;;;;2.33;86.81;98747.65;1786803;80;21128;-81
2021/03/18 06:07:09;;;;;;;24.75;11.55;;;;;;;2.37;86.76;98747.89;1786867;80;21615;-78
2021/03/18 06:09:36;;;;;;;39.25;10.88;;;;;;;2.41;86.62;98754.37;1787419;79;20994;-77
2021/03/18 06:12:05;;;;;;;20.32;10.03;;;;;;;2.47;87.50;98754.05;1797792;79;21183;-78
2021/03/18 06:14:33;;;;;;;29.02;11.38;;;;;;;2.56;86.12;98757.78;1796753;79;21659;-80
2021/03/18 06:17:01;;;;;;;27.70;10.18;;;;;;;2.52;85.04;98748.59;1814505;79;21144;-82
2021/03/18 06:19:29;;;;;;;21.85;10.50;;;;;;;2.49;85.18;98757.29;1816939;79;21147;-78
2021/03/18 06:21:58;;;;;;;22.62;10.68;;;;;;;2.50;85.22;98756.20;1813646;78;21576;-79
2021/03/18 06:24:28;;;;;;;21.87;11.12;;;;;;;2.52;84.94;98758.08;1815307;78;21124;-78
2021/03/18 06:26:56;;;;;;;26.97;9.48;;;;;;;2.56;85.01;98756.97;1816866;79;21382;-80
2021/03/18 06:29:35;;;;;;;34.35;12.00;;;;;;;2.64;85.41;98765.31;1816910;79;21494;-79
2021/03/18 06:32:18;;;;;;;24.60;9.83;;;;;;;2.74;85.56;98763.61;1817235;79;21092;-79
2021/03/18 06:34:52;;;;;;;25.27;11.40;;;;;;;2.82;84.88;98769.23;1816980;79;21635;-79
2021/03/18 06:37:43;;;;;;;30.02;11.30;;;;;;;2.87;84.33;98764.32;1817209;79;21129;-81
2021/03/18 06:40:20;;;;;;;18.10;9.95;;;;;;;2.93;83.48;98767.22;1817100;78;22691;-79
2021/03/18 06:43:00;;;;;;;22.52;10.58;;;;;;;2.96;83.23;98763.39;1833510;77;21537;-86
2021/03/18 06:45:38;;;;;;;18.85;9.80;;;;;;;3.05;83.32;98769.02;1802603;79;21541;-83
2021/03/18 06:48:13;;;;;;;24.80;10.78;;;;;;;3.17;82.85;98767.28;1798947;78;21203;-82
2021/03/18 06:50:47;;;;;;;26.97;10.08;;;;;;;3.26;82.28;98763.66;1797860;78;21457;-81
2021/03/18 06:53:29;;;;;;;27.65;10.72;;;;;;;3.31;80.88;98760.09;1793136;78;21337;-82
2021/03/18 06:55:58;;;;;;;27.17;11.93;;;;;;;3.37;80.57;98768.43;1796690;78;21137;-81
2021/03/18 06:58:27;;;;;;;23.75;10.38;;;;;;;3.44;80.19;98768.09;1766146;80;21160;-79
2021/03/18 07:01:00;;;;;;;18.75;9.13;;;;;;;3.56;80.21;98766.56;1792921;80;21615;-86
2021/03/18 07:03:33;;;;;;;19.50;9.65;;;;;;;3.65;79.20;98766.19;1786672;79;21517;-84
2021/03/18 07:06:05;;;;;;;16.70;8.85;;;;;;;3.73;77.81;98763.39;1791660;80;21368;-82
2021/03/18 07:08:37;;;;;;;20.95;8.75;;;;;;;3.82;77.66;98763.01;1791520;80;20942;-82
2021/03/18 07:11:23;;;;;;;18.57;8.30;;;;;;;3.94;77.07;98760.69;1791861;78;21601;-82
2021/03/18 07:13:51;;;;;;;10.98;6.78;;;;;;;4.06;76.61;98760.78;1801296;78;21129;-82
2021/03/18 07:16:18;;;;;;;22.00;8.25;;;;;;;4.16;75.13;98758.73;1792660;80;21158;-82
2021/03/18 07:18:56;;;;;;;18.90;8.40;;;;;;;4.26;75.12;98758.59;1793006;80;21372;-81
2021/03/18 07:21:40;;;;;;;16.67;7.47;;;;;;;4.46;74.43;98762.94;1792486;80;20940;-82
2021/03/18 07:24:33;;;;;;;15.00;7.03;;;;;;;4.72;73.11;98763.33;1796996;78;21140;-81
2021/03/18 07:27:14;;;;;;;20.97;8.30;;;;;;;5.14;72.12;98761.00;1799307;78;22780;-81
2021/03/18 07:29:47;;;;;;;12.93;7.30;;;;;;;5.43;71.20;98761.27;1774073;81;20974;-81
2021/03/18 07:32:14;;;;;;;;;;;;;;;5.92;70.55;98753.22;1776777;81;21435;-82
2021/03/18 07:34:45;;;;;;;17.12;6.70;;;;;;;6.56;68.51;98759.42;1773992;81;20131;-79
2021/03/18 07:37:13;;;;;;;11.78;6.50;;;;;;;7.02;66.12;98747.38;1774035;81;20977;-82
2021/03/18 07:39:41;;;;;;;18.73;7.28;;;;;;;7.38;64.08;98760.91;1774032;81;21584;-82
2021/03/18 07:42:10;;;;;;;24.35;10.43;;;;;;;7.58;62.44;98755.44;1774073;79;20910;-81
2021/03/18 07:44:37;;;;;;;19.90;9.25;;;;;;;7.68;62.30;98761.98;1732407;82;21520;-80
2021/03/18 07:47:05;;;;;;;17.42;8.68;;;;;;;7.56;61.05;98760.41;1743257;82;21005;-83
2021/03/18 07:49:39;;;;;;;22.40;8.28;;;;;;;7.26;62.14;98762.05;1743442;81;21585;-81
2021/03/18 07:52:07;;;;;;;19.90;8.73;;;;;;;6.96;61.32;98754.08;1712273;82;21484;-82
2021/03/18 07:54:34;;;;;;;16.67;8.18;;;;;;;6.53;63.16;98754.58;1743331;82;21115;-80
2021/03/18 07:57:01;;;;;;;24.45;8.70;;;;;;;6.20;64.41;98752.63;1743341;82;21025;-82
2021/03/18 07:59:32;;;;;;;18.05;8.83;;;;;;;5.94;64.91;98760.53;1736576;82;21012;-78
2021/03/18 08:02:22;;;;;;;19.82;8.28;;;;;;;5.70;64.96;98755.84;1708533;82;20930;-81
2021/03/18 08:04:53;;;;;;;23.00;8.50;;;;;;;5.46;66.42;98771.01;1720034;82;21182;-81
2021/03/18 08:07:46;;;;;;;22.48;9.20;;;;;;;5.30;66.96;98777.28;1735446;82;21125;-77
2021/03/18 08:10:25;;;;;;;28.30;7.92;;;;;;;5.20;66.93;98773.37;1736139;82;21214;-76
2021/03/18 08:12:55;;;;;;;14.23;8.15;;;;;;;5.12;67.83;98768.66;1720502;80;21020;-79
2021/03/18 08:15:26;;;;;;;22.17;7.45;;;;;;;5.09;68.22;98769.25;1736855;81;21593;-81
2021/03/18 08:17:55;;;;;;;19.70;7.47;;;;;;;5.11;68.63;98773.03;1721021;81;21214;-77
2021/03/18 08:20:44;;;;;;;18.73;9.68;;;;;;;5.08;68.30;98775.80;1736934;81;21116;-81
2021/03/18 08:23:32;;;;;;;17.25;9.23;;;;;;;5.01;68.03;98772.65;1736971;81;22428;-76
2021/03/18 08:26:02;;;;;;;18.92;8.55;;;;;;;5.00;69.09;98780.55;1734523;80;20941;-76
2021/03/18 08:28:46;;;;;;;16.95;7.55;;;;;;;5.11;69.20;98778.47;1729497;82;20934;-77
2021/03/18 08:31:20;;;;;;;20.10;8.68;;;;;;;5.17;69.00;98780.00;1743323;80;21563;-77
2021/03/18 08:33:55;;;;;;;16.80;8.03;;;;;;;5.18;68.89;98786.50;1743350;80;20934;-76
2021/03/18 08:36:27;;;;;;;16.00;7.90;;;;;;;5.20;68.26;98786.98;1743268;81;21368;-78
2021/03/18 08:38:57;;;;;;;;;;;;;;;5.25;68.58;98783.36;1745294;80;20942;-78
2021/03/18 08:41:39;;;;;;;12.70;6.87;;;;;;;5.34;68.75;98787.02;1742826;82;20225;-78
2021/03/18 08:44:26;;;;;;;20.50;8.30;;;;;;;5.39;67.30;98782.84;1743060;82;21520;-78
2021/03/18 08:46:59;;;;;;;20.75;7.30;;;;;;;5.35;66.27;98781.83;1742056;82;21005;-80
2021/03/18 08:49:42;;;;;;;13.93;6.75;;;;;;;5.30;66.12;98782.72;1742788;81;21212;-80
2021/03/18 08:52:13;;;;;;;14.28;6.67;;;;;;;5.31;66.49;98790.33;1742687;81;20926;-78
2021/03/18 08:54:50;;;;;;;18.12;6.95;;;;;;;5.27;65.75;98783.88;1741384;81;21017;-78
2021/03/18 08:57:29;;;;;;;22.37;7.33;;;;;;;5.21;66.19;98785.88;1742780;81;21064;-80
2021/03/18 09:00:15;;;;;;;13.58;6.70;;;;;;;5.30;66.40;98780.00;1742348;81;20950;-80
2021/03/18 09:02:47;;;;;;;17.10;6.53;;;;;;;5.30;66.40;98780.00;1736832;80;21835;-75
2021/03/18 09:05:18;;;;;;;14.80;6.87;;;;;;;5.40;66.33;98783.65;1733706;80;21114;-78
2021/03/18 09:07:52;;;;;;;25.52;7.45;;;;;;;5.49;65.74;98785.93;1742893;82;21516;-78
2021/03/18 09:10:31;;;;;;;12.03;5.95;;;;;;;5.50;65.36;98790.27;1742754;82;21464;-75
2021/03/18 09:13:14;;;;;;;15.53;6.72;;;;;;;5.42;65.25;98789.05;1743124;81;20926;-84
2021/03/18 09:15:44;;;;;;;16.20;6.62;;;;;;;5.33;64.69;98790.03;1743402;82;21420;-78
2021/03/18 09:18:31;;;;;;;20.75;7.17;;;;;;;5.21;64.89;98785.88;1742791;82;21571;-82
2021/03/18 09:21:04;;;;;;;14.90;7.35;;;;;;;5.12;64.35;98795.05;1742736;82;20937;-71
2021/03/18 09:23:34;;;;;;;12.60;7.07;;;;;;;4.91;66.31;98795.38;1742363;82;21199;-72
2021/03/18 09:26:04;;;;;;;14.03;7.15;;;;;;;4.89;66.63;98796.78;1709929;82;21124;-78
2021/03/18 09:28:38;;;;;;;20.40;6.85;;;;;;;4.89;66.63;98796.78;1741140;82;21441;-72
2021/03/18 09:31:06;;;;;;;26.23;6.78;;;;;;;4.83;66.45;98793.89;1741118;82;20958;-71
2021/03/18 09:33:37;;;;;;;16.62;6.58;;;;;;;4.81;65.93;98798.27;1709740;82;20969;-74
2021/03/18 09:36:20;;;;;;;19.92;7.53;;;;;;;4.89;65.73;98794.06;1741523;82;20929;-72
2021/03/18 09:39:12;;;;;;;13.70;5.72;;;;;;;5.07;66.02;98793.22;1741420;82;21072;-74
2021/03/18 09:41:45;;;;;;;15.63;6.95;;;;;;;5.31;64.99;98796.58;1741153;82;21212;-74
2021/03/18 09:44:20;;;;;;;14.25;5.83;;;;;;;5.64;63.71;98793.81;1741100;81;21559;-75
2021/03/18 09:46:52;;;;;;;16.82;5.65;;;;;;;5.64;63.71;98793.81;1740790;81;20930;-78
2021/03/18 09:49:36;;;;;;;20.15;6.35;;;;;;;5.68;65.12;98796.19;1741353;82;21478;-76
2021/03/18 09:52:10;;;;;;;14.78;6.08;;;;;;;5.76;63.50;98799.58;1742778;82;21005;-81
2021/03/18 09:54:38;;;;;;;20.32;6.40;;;;;;;5.76;63.26;98783.78;1741836;82;21148;-81
2021/03/18 09:57:08;;;;;;;17.00;5.30;;;;;;;5.76;63.26;98783.78;1741562;81;21612;-77
2021/03/18 09:59:36;;;;;;;20.88;7.12;;;;;;;5.73;62.68;98788.48;1741202;81;21167;-75
2021/03/18 10:02:05;;;;;;;13.58;7.25;;;;;;;5.69;63.48;98786.91;1734822;81;21162;-75
2021/03/18 10:05:00;;;;;;;17.87;8.00;;;;;;;5.62;64.77;98794.12;1722827;82;21161;-78
2021/03/18 10:07:31;;;;;;;20.15;8.60;;;;;;;5.45;66.22;98799.33;1806239;78;21554;-78
2021/03/18 10:09:59;;;;;;;18.87;8.08;;;;;;;5.21;67.73;98803.56;1792977;78;21561;-79
2021/03/18 10:12:29;;;;;;;13.60;8.73;;;;;;;5.05;68.54;98804.95;1802232;78;21534;-74
2021/03/18 10:15:10;;;;;;;15.85;9.30;;;;;;;4.93;68.98;98810.85;1804967;78;21556;-77
2021/03/18 10:17:40;;;;;;;15.68;9.33;;;;;;;4.76;70.17;98809.77;1790898;78;21209;-76
2021/03/18 10:20:25;;;;;;;28.47;11.20;;;;;;;4.76;70.17;98809.77;1811688;78;22059;-79
2021/03/18 10:23:10;;;;;;;21.40;9.25;;;;;;;4.82;70.44;98815.39;1824230;78;21023;-82
2021/03/18 10:25:39;;;;;;;20.75;12.20;;;;;;;4.92;71.25;98809.79;1742017;81;21580;-83
2021/03/18 10:28:12;;;;;;;20.35;10.95;;;;;;;5.15;70.35;98812.95;1746498;81;21181;-82
2021/03/18 10:30:47;;;;;;;20.25;10.70;;;;;;;5.10;69.58;98821.74;1746402;80;20928;-83
2021/03/18 10:33:21;;;;;;;25.50;13.78;;;;;;;5.10;69.58;98821.74;1747616;80;22520;-84
2021/03/18 10:35:58;;;;;;;33.78;16.02;;;;;;;4.82;70.99;98814.02;1746079;81;21586;-83
2021/03/18 10:38:38;;;;;;;28.95;14.07;;;;;;;4.82;70.99;98814.02;1743009;82;21121;-82
2021/03/18 10:41:13;;;;;;;25.82;11.63;;;;;;;4.63;70.81;98811.31;1745215;82;21149;-84
2021/03/18 10:43:43;;;;;;;25.23;9.80;;;;;;;4.48;71.78;98815.64;1767085;80;21019;-83
2021/03/18 10:46:16;;;;;;;14.18;8.80;;;;;;;4.37;72.43;98819.59;1750812;81;21389;-84
2021/03/18 10:48:49;;;;;;;20.45;9.45;;;;;;;4.35;72.71;98817.72;1761953;80;21028;-77
2021/03/18 10:51:19;;;;;;;15.83;9.38;;;;;;;4.30;73.39;98818.59;1738216;81;21209;-78
2021/03/18 10:53:52;;;;;;;20.75;10.98;;;;;;;4.28;73.71;98815.36;1737163;81;21071;-79
2021/03/18 10:56:27;;;;;;;18.57;10.50;;;;;;;4.33;73.54;98816.66;1755786;80;21161;-79
2021/03/18 10:58:56;;;;;;;15.93;8.28;;;;;;;4.40;72.63;98817.11;1744720;80;22276;-79
2021/03/18 11:01:26;;;;;;;13.28;8.65;;;;;;;4.48;72.05;98821.08;1743906;82;21105;-78
2021/03/18 11:04:04;;;;;;;19.65;9.03;;;;;;;4.59;71.92;98811.13;1757359;80;21784;-79
2021/03/18 11:06:33;;;;;;;16.77;8.95;;;;;;;4.76;70.95;98816.56;1733818;81;21191;-78
2021/03/18 11:09:01;;;;;;;21.37;9.40;;;;;;;4.84;70.11;98813.17;1711018;83;21115;-78
2021/03/18 11:11:32;;;;;;;21.82;11.93;;;;;;;4.97;70.83;98817.88;1709283;83;21654;-79
2021/03/18 11:14:13;;;;;;;22.27;11.35;;;;;;;4.97;70.83;98817.88;1714468;83;21154;-79
2021/03/18 11:16:41;;;;;;;16.67;9.15;;;;;;;5.07;70.35;98816.90;1669212;86;21572;-79
2021/03/18 11:19:14;;;;;;;9.95;6.87;;;;;;;5.11;71.76;98819.28;1697229;84;21153;-76
2021/03/18 11:21:43;;;;;;;12.33;7.08;;;;;;;5.16;71.07;98819.20;1697411;84;21750;-77
2021/03/18 11:24:16;;;;;;;13.85;6.62;;;;;;;5.10;70.78;98816.30;1697026;84;22512;-77
2021/03/18 11:26:55;;;;;;;10.25;6.80;;;;;;;4.96;71.44;98821.14;1697001;84;21158;-77
2021/03/18 11:29:29;;;;;;;11.97;7.42;;;;;;;4.87;71.67;98816.67;1696984;84;21014;-80
2021/03/18 11:32:00;;;;;;;10.80;6.80;;;;;;;4.76;71.32;98820.64;1669150;84;21667;-78
2021/03/18 11:34:30;;;;;;;19.07;9.10;;;;;;;4.52;72.35;98818.84;1696975;84;21149;-79
2021/03/18 11:37:04;;;;;;;19.20;9.60;;;;;;;4.52;72.35;98818.84;1697003;84;21213;-77
2021/03/18 11:39:33;;;;;;;14.38;8.28;;;;;;;4.49;72.35;98818.62;1700028;84;21175;-79
2021/03/18 11:42:01;;;;;;;14.80;9.18;;;;;;;4.38;72.32;98811.70;1700836;84;21626;-78
2021/03/18 11:44:30;;;;;;;18.92;9.88;;;;;;;4.33;73.41;98818.56;1682364;85;21007;-78
2021/03/18 11:47:03;;;;;;;20.40;8.88;;;;;;;4.38;73.47;98817.14;1697763;84;21080;-78
2021/03/18 11:49:32;;;;;;;14.75;7.72;;;;;;;4.44;73.07;98814.06;1697775;84;21596;-78
2021/03/18 11:52:00;;;;;;;14.85;7.33;;;;;;;4.54;73.27;98812.55;1697790;84;21093;-80
2021/03/18 11:54:27;;;;;;;16.25;8.13;;;;;;;4.69;72.71;98810.69;1697828;83;21101;-79
2021/03/18 11:56:55;;;;;;;14.65;7.30;;;;;;;4.74;71.67;98815.50;1697816;84;21176;-78